Adelaide, CA

2:14 AM PDT on September 02, 2014 (GMT -0700)
Montebello Oaks | Change Station
CLOSE
Current Station
Personal Weather Station
Location: Paso Robles, CA
Elevation: 869 ft
Nearby Weather Stations

Elev 869 ft 35.64 °N, 120.67 °W | Updated 12 minutes ago

Clear
Clear
63.2 °F
Feels Like 63.2 °F
N
1.0
Wind Variable Wind from SE
Gusts 1.0 mph

Today
High -- | Low -- °F
--% Chance of Precip.
Yesterday
High -- | Low -- °F
Precip. -- in
6:35 AM 7:28 PM
Waxing Crescent, 49% visible
Pressure 29.79 in
Visibility 10.0 miles
Clouds Clear
Dew Point 54 °F
Humidity 71%
Rainfall 0.00 in
Snow Depth Not available.
UV 0 out of 12
Pollen 9.20 out of 12
Air Quality Not available.
Flu Activity Not available.
METAR KPRB 020853Z AUTO 00000KT 10SM CLR 18/10 A2982 RMK AO2 SLP088 T01830100 58001

More Conditions Fewer Conditions

Pressure 29.79 in
Visibility 10.0 miles
Clouds Clear
Dew Point 54 °F
Humidity 71%
Rainfall 0.00 in
Snow Depth Not available.
UV 0 out of 12
Pollen 9.20 out of 12
Air Quality Not available.
Flu Activity Not available.
METAR KPRB 020853Z AUTO 00000KT 10SM CLR 18/10 A2982 RMK AO2 SLP088 T01830100 58001

More Conditions Fewer Conditions

10-Day Weather Forecast

Almanac

Astronomy

Sep. 02, 2014 Rise Set
Actual Time 6:35 AM PDT 7:28 PM PDT
Civil Twilight 6:09 AM PDT 7:54 PM PDT
Nautical Twilight 5:38 AM PDT 8:25 PM PDT
Astronomical Twilight 5:07 AM PDT 8:56 PM PDT
Moon 2:10 PM PDT No Moon Set
Length of Visible Light 13h 44m
Length of Day
12h 52m
Tomorrow will be 2m 9s shorter.
Waxing Crescent, 49% of the Moon is Illuminated
Today
Waxing Crescent
Sep 2
First Quarter
Sep 8
Full
Sep 15
Last Quarter
Sep 24
New

Today's Extremes

State Highs State Lows

Community

WunderPhotos

Upload Photos

1,749,587 photos uploaded!

WunderBlogs® & News

Nearby

Snow Depth

Station Depth Elevation
Leavitt Lake 0 in 9400 ft
Leavitt Meadows 1 in 7200 ft
Summit Meadow 0 in 9122 ft
Blue Lakes 0 in 8000 ft
Forestdale Creek 0 in 8029 ft

Earthquake Activity

City Distance Mag. Time & Date
Gilroy, California 102 miles 3.5 9:10 AM PDT
2014-09-01
Gonzales, California 75 miles 2.7 9:48 PM PDT
2014-08-30
Malibu, California 160 miles 2.5 8:11 AM PDT
2014-08-30
Minimum magnitude displayed is 2.5.

Coastal Water Temperatures

Place Temperature
No Stations Reporting

Nearby Weather Stations